Time;durP1;ratioP1;P1;durP2;ratioP2;P2;SDS_P1;SDS_P2;PMS_P1;PMS_P2;Temp;Humidity;BMP_temperature;BMP_pressure;BME280_temperature;BME280_humidity;BME280_pressure;Samples;Min_cycle;Max_cycle;Signal;HPM_P1;HPM_P2
2021/04/20 00:02:11;;;;;;;5.17;4.53;;;9.90;99.90;;;;;;5090362;28;20206;-73
2021/04/20 00:04:38;;;;;;;7.20;4.57;;;9.90;99.90;;;;;;5074872;28;20666;-74
2021/04/20 00:07:05;;;;;;;6.67;3.53;;;9.90;99.90;;;;;;5090510;28;20213;-76
2021/04/20 00:09:31;;;;;;;6.30;3.70;;;10.00;99.90;;;;;;5089534;28;20229;-76
2021/04/20 00:11:59;;;;;;;3.80;3.23;;;10.00;99.90;;;;;;5090412;28;20206;-75
2021/04/20 00:14:25;;;;;;;5.60;3.90;;;10.10;99.90;;;;;;5089802;28;20201;-72
2021/04/20 00:16:52;;;;;;;4.97;3.40;;;10.10;99.90;;;;;;5090216;28;20210;-70
2021/04/20 00:19:18;;;;;;;4.03;3.67;;;10.00;99.90;;;;;;5090291;28;20263;-71
2021/04/20 00:21:45;;;;;;;7.60;4.03;;;10.00;99.90;;;;;;5089638;28;20209;-72
2021/04/20 00:24:12;;;;;;;4.47;3.80;;;9.90;99.90;;;;;;5090116;28;20696;-70
2021/04/20 00:26:39;;;;;;;6.03;4.37;;;9.90;99.90;;;;;;5089347;28;20211;-70
2021/04/20 00:29:06;;;;;;;8.53;4.37;;;9.90;99.90;;;;;;5090169;28;20229;-71
2021/04/20 00:31:33;;;;;;;5.30;4.77;;;9.90;99.90;;;;;;5079631;28;20213;-71
2021/04/20 00:33:59;;;;;;;9.73;4.67;;;9.90;99.90;;;;;;5093704;28;20205;-73
2021/04/20 00:36:25;;;;;;;9.07;4.83;;;10.00;99.90;;;;;;5093060;28;20255;-76
2021/04/20 00:38:52;;;;;;;13.37;5.17;;;10.00;99.90;;;;;;5093334;28;20221;-69
2021/04/20 00:41:18;;;;;;;12.57;5.20;;;10.10;99.90;;;;;;5093714;28;20205;-73
2021/04/20 00:43:47;;;;;;;11.57;4.83;;;10.20;99.90;;;;;;5092937;28;20210;-72
2021/04/20 00:46:16;;;;;;;14.53;6.10;;;10.10;99.90;;;;;;5093163;28;20209;-72
2021/04/20 00:48:43;;;;;;;8.63;4.73;;;10.10;99.90;;;;;;5092758;28;20282;-72
2021/04/20 00:51:10;;;;;;;7.57;4.93;;;10.00;99.90;;;;;;5093065;28;20205;-71
2021/04/20 00:53:37;;;;;;;6.77;4.40;;;9.90;99.90;;;;;;5093161;28;20213;-74
2021/04/20 00:56:04;;;;;;;8.83;4.70;;;9.90;99.90;;;;;;5092734;28;20213;-73
2021/04/20 00:58:31;;;;;;;8.20;3.63;;;9.80;99.90;;;;;;5092844;28;20212;-71
2021/04/20 01:00:59;;;;;;;6.47;4.17;;;9.90;99.90;;;;;;5093040;28;20232;-75
2021/04/20 01:03:27;;;;;;;7.23;3.90;;;9.90;99.90;;;;;;5092975;28;20209;-75
2021/04/20 01:05:54;;;;;;;4.77;3.80;;;9.90;99.90;;;;;;5085732;28;20210;-72
2021/04/20 01:08:24;;;;;;;3.63;3.27;;;9.90;99.90;;;;;;5093207;28;20213;-75
2021/04/20 01:10:52;;;;;;;3.80;3.40;;;9.90;99.90;;;;;;5093190;28;20719;-74
2021/04/20 01:13:21;;;;;;;4.73;3.20;;;10.00;99.90;;;;;;5092728;28;20205;-74
2021/04/20 01:15:50;;;;;;;5.63;3.77;;;10.10;99.90;;;;;;5092299;28;20768;-71
2021/04/20 01:18:20;;;;;;;4.33;3.60;;;10.20;99.90;;;;;;5087542;28;20684;-74
2021/04/20 01:20:50;;;;;;;5.73;4.07;;;10.20;99.90;;;;;;5092364;28;20197;-74
2021/04/20 01:23:22;;;;;;;3.93;3.53;;;10.10;99.90;;;;;;5092663;28;20212;-70
2021/04/20 01:25:49;;;;;;;4.87;3.47;;;10.10;99.90;;;;;;5071241;28;20584;-74
2021/04/20 01:28:16;;;;;;;4.87;4.37;;;10.20;99.90;;;;;;5092503;28;20206;-71
2021/04/20 01:30:43;;;;;;;6.77;4.13;;;10.00;99.90;;;;;;5092364;28;20263;-75
2021/04/20 01:33:09;;;;;;;4.47;3.83;;;10.10;99.90;;;;;;5092611;28;20206;-75
2021/04/20 01:35:37;;;;;;;6.53;4.57;;;10.20;99.90;;;;;;5091926;28;20202;-76
2021/04/20 01:38:04;;;;;;;4.77;3.97;;;10.30;99.90;;;;;;5087240;28;20206;-74
2021/04/20 01:40:31;;;;;;;7.03;4.47;;;10.30;99.90;;;;;;5086018;28;20225;-77
2021/04/20 01:43:00;;;;;;;5.03;3.87;;;10.40;99.90;;;;;;5092661;28;20202;-77
2021/04/20 01:45:28;;;;;;;8.47;3.90;;;10.40;99.90;;;;;;5084094;28;20213;-76
2021/04/20 01:47:54;;;;;;;5.67;3.60;;;10.40;99.90;;;;;;5091937;28;20217;-76
2021/04/20 01:50:21;;;;;;;4.40;3.63;;;10.40;99.90;;;;;;5092211;28;20243;-75
2021/04/20 01:52:48;;;;;;;4.37;3.97;;;10.40;99.90;;;;;;5091783;28;20212;-74
2021/04/20 01:55:15;;;;;;;4.53;3.90;;;10.40;99.90;;;;;;5092317;28;20216;-72
2021/04/20 01:57:45;;;;;;;5.67;3.93;;;10.40;99.90;;;;;;5091371;28;20210;-75
2021/04/20 02:00:16;;;;;;;4.03;3.63;;;10.40;99.90;;;;;;5092077;28;20209;-77
2021/04/20 02:02:43;;;;;;;4.10;3.47;;;10.40;99.90;;;;;;5091584;28;20784;-76
2021/04/20 02:05:11;;;;;;;4.17;3.33;;;10.30;99.90;;;;;;5083259;28;20205;-73
2021/04/20 02:07:38;;;;;;;4.90;4.23;;;10.40;99.90;;;;;;5091395;28;20744;-76
2021/04/20 02:10:06;;;;;;;4.00;3.20;;;10.50;99.90;;;;;;5063769;28;20237;-76
2021/04/20 02:12:35;;;;;;;6.37;4.30;;;10.40;99.90;;;;;;5086936;28;20209;-74
2021/04/20 02:15:02;;;;;;;4.07;3.67;;;10.50;99.90;;;;;;5091370;28;20588;-77
2021/04/20 02:17:29;;;;;;;4.57;3.77;;;10.40;99.90;;;;;;5091265;28;20201;-73
2021/04/20 02:19:56;;;;;;;6.03;3.73;;;10.40;99.90;;;;;;5091335;28;20204;-75
2021/04/20 02:22:22;;;;;;;6.67;3.93;;;10.40;99.90;;;;;;5091592;28;20214;-76
2021/04/20 02:24:49;;;;;;;5.87;4.10;;;10.40;99.90;;;;;;5091846;28;20259;-78
2021/04/20 02:27:15;;;;;;;14.00;4.67;;;10.20;99.90;;;;;;5091486;28;20677;-80
2021/04/20 02:29:43;;;;;;;10.70;5.70;;;10.10;99.90;;;;;;5091195;28;20229;-76
2021/04/20 02:32:09;;;;;;;6.83;4.00;;;10.10;99.90;;;;;;5091350;28;20201;-74
2021/04/20 02:34:37;;;;;;;6.10;3.97;;;9.90;99.90;;;;;;5090601;28;20202;-74
2021/04/20 02:37:04;;;;;;;6.40;4.20;;;10.10;99.90;;;;;;5087836;28;20217;-74
2021/04/20 02:39:30;;;;;;;5.80;4.60;;;10.00;99.90;;;;;;5085898;28;20209;-73
2021/04/20 02:41:57;;;;;;;5.70;4.53;;;10.10;99.90;;;;;;5091198;28;20657;-76
2021/04/20 02:44:24;;;;;;;6.77;4.47;;;10.10;99.90;;;;;;5091083;28;20210;-71
2021/04/20 02:46:50;;;;;;;6.10;3.90;;;10.10;99.90;;;;;;5082199;28;20202;-76
2021/04/20 02:49:18;;;;;;;5.23;4.70;;;9.90;99.90;;;;;;5085051;28;20282;-77
2021/04/20 02:51:46;;;;;;;4.90;4.40;;;9.90;99.90;;;;;;5090747;28;20208;-77
2021/04/20 02:54:14;;;;;;;4.40;4.00;;;9.90;99.90;;;;;;5091278;28;20621;-77
2021/04/20 02:56:40;;;;;;;6.13;5.03;;;9.90;99.90;;;;;;5089511;28;20202;-77
2021/04/20 02:59:10;;;;;;;4.87;4.13;;;9.90;99.90;;;;;;5091042;28;20271;-77
2021/04/20 03:01:39;;;;;;;3.93;3.60;;;9.70;99.90;;;;;;5089886;28;20665;-75
2021/04/20 03:04:06;;;;;;;6.03;4.73;;;9.80;99.90;;;;;;5091200;28;20554;-75
2021/04/20 03:06:33;;;;;;;5.67;4.20;;;9.90;99.90;;;;;;5090434;28;20210;-80
2021/04/20 03:09:02;;;;;;;5.77;4.67;;;10.00;99.90;;;;;;5091053;28;20252;-75
2021/04/20 03:11:34;;;;;;;5.07;4.57;;;9.90;99.90;;;;;;5090005;28;20693;-72
2021/04/20 03:14:05;;;;;;;4.23;3.57;;;10.00;99.90;;;;;;5091117;28;20206;-77
2021/04/20 03:16:32;;;;;;;6.07;3.87;;;9.90;99.90;;;;;;5090136;28;20296;-79
2021/04/20 03:18:59;;;;;;;4.63;4.17;;;10.00;99.90;;;;;;5090515;28;20208;-75
2021/04/20 03:21:26;;;;;;;8.40;4.00;;;9.90;99.90;;;;;;5090133;28;20247;-72
2021/04/20 03:23:53;;;;;;;7.60;4.77;;;9.80;99.90;;;;;;5084300;28;20698;-76
2021/04/20 03:26:44;;;;;;;7.27;5.20;;;9.80;99.90;;;;;;5090676;28;20700;-75
2021/04/20 03:29:11;;;;;;;9.00;6.70;;;9.80;99.90;;;;;;5056095;28;20244;-76
2021/04/20 03:31:39;;;;;;;9.80;6.83;;;9.90;99.90;;;;;;5085057;28;20231;-76
2021/04/20 03:34:14;;;;;;;6.50;5.60;;;9.80;99.90;;;;;;5086538;28;20213;-78
2021/04/20 03:36:54;;;;;;;5.60;4.87;;;9.80;99.90;;;;;;5081760;28;20228;-73
2021/04/20 03:39:22;;;;;;;9.53;5.87;;;9.80;99.90;;;;;;5090860;28;20205;-75
2021/04/20 03:41:55;;;;;;;6.73;5.23;;;9.70;99.90;;;;;;5090720;28;20216;-76
2021/04/20 03:44:27;;;;;;;9.30;5.97;;;9.70;99.90;;;;;;5090320;28;20580;-69
2021/04/20 03:46:57;;;;;;;4.83;4.10;;;9.60;99.90;;;;;;5078368;28;20198;-76
2021/04/20 03:49:29;;;;;;;7.80;4.23;;;9.50;99.90;;;;;;5086989;28;20590;-69
2021/04/20 03:51:58;;;;;;;8.77;4.73;;;9.50;99.90;;;;;;5090531;28;20212;-76
2021/04/20 03:54:26;;;;;;;6.27;5.30;;;9.50;99.90;;;;;;5089689;28;20212;-78
2021/04/20 03:56:57;;;;;;;17.23;5.20;;;9.50;99.90;;;;;;5090600;28;20201;-74
2021/04/20 03:59:26;;;;;;;6.60;5.53;;;9.50;99.90;;;;;;5089778;28;20620;-73
2021/04/20 04:01:53;;;;;;;5.10;4.53;;;9.50;99.90;;;;;;5082106;28;20206;-72
2021/04/20 04:04:23;;;;;;;5.23;4.67;;;9.40;99.90;;;;;;5084514;28;20278;-76
2021/04/20 04:06:51;;;;;;;5.43;3.80;;;9.50;99.90;;;;;;5090746;28;20204;-75
2021/04/20 04:09:20;;;;;;;4.40;4.03;;;9.40;99.90;;;;;;5094382;28;20229;-79
2021/04/20 04:11:51;;;;;;;4.57;3.70;;;9.40;99.90;;;;;;5093679;28;20201;-74
2021/04/20 04:14:22;;;;;;;6.13;4.50;;;9.50;99.90;;;;;;5094010;28;20625;-72
2021/04/20 04:16:49;;;;;;;7.77;4.53;;;9.50;99.90;;;;;;5085943;28;20202;-75
2021/04/20 04:19:18;;;;;;;6.63;4.90;;;9.50;99.90;;;;;;5085122;28;20220;-72
2021/04/20 04:21:52;;;;;;;5.47;4.53;;;9.50;99.90;;;;;;5093318;28;20251;-70
2021/04/20 04:24:19;;;;;;;8.23;5.90;;;9.60;99.90;;;;;;5088291;28;20212;-79
2021/04/20 04:26:50;;;;;;;5.37;4.87;;;9.60;99.90;;;;;;5094468;28;20209;-79
2021/04/20 04:29:20;;;;;;;6.83;5.17;;;9.50;99.90;;;;;;5094603;28;20221;-78
2021/04/20 04:31:48;;;;;;;10.17;5.57;;;9.50;99.90;;;;;;5094952;28;20293;-76
2021/04/20 04:34:16;;;;;;;6.93;5.23;;;9.60;99.90;;;;;;5095780;28;20201;-81
2021/04/20 04:36:44;;;;;;;8.17;5.23;;;9.60;99.90;;;;;;5093786;28;20213;-76
2021/04/20 04:39:16;;;;;;;5.67;5.00;;;9.60;99.90;;;;;;5094867;28;20202;-75
2021/04/20 04:41:43;;;;;;;7.27;5.30;;;9.70;99.90;;;;;;5094245;28;20259;-80
2021/04/20 04:44:10;;;;;;;5.90;4.63;;;9.70;99.90;;;;;;5087715;28;20279;-69
2021/04/20 04:46:40;;;;;;;5.30;4.80;;;9.70;99.90;;;;;;5092956;28;20205;-72
2021/04/20 04:49:08;;;;;;;8.40;4.27;;;9.90;99.90;;;;;;5078700;28;20234;-75
2021/04/20 04:51:37;;;;;;;10.10;5.43;;;9.70;99.90;;;;;;5092989;28;20714;-72
2021/04/20 04:54:04;;;;;;;6.50;5.83;;;9.30;99.90;;;;;;5090321;28;20688;-75
2021/04/20 04:56:31;;;;;;;7.70;6.50;;;9.20;99.90;;;;;;5091672;28;20738;-70
2021/04/20 04:59:01;;;;;;;9.57;5.50;;;9.30;99.90;;;;;;5093406;28;20209;-73
2021/04/20 05:01:29;;;;;;;8.97;6.30;;;9.30;99.90;;;;;;5092746;28;20695;-69
2021/04/20 05:04:08;;;;;;;7.33;5.50;;;9.30;99.90;;;;;;5092942;28;20205;-73
2021/04/20 05:06:38;;;;;;;10.50;5.57;;;9.30;99.90;;;;;;5092791;28;20608;-71
2021/04/20 05:09:08;;;;;;;6.53;4.93;;;9.40;99.90;;;;;;5092758;28;20233;-74
2021/04/20 05:11:36;;;;;;;6.67;5.70;;;9.40;99.90;;;;;;5092431;28;20213;-73
2021/04/20 05:14:03;;;;;;;6.27;4.90;;;9.40;99.90;;;;;;5092418;28;20210;-72
2021/04/20 05:16:30;;;;;;;14.67;5.70;;;9.30;99.90;;;;;;5078679;28;20202;-72
2021/04/20 05:19:01;;;;;;;8.87;5.67;;;9.40;99.90;;;;;;5091660;28;20205;-70
2021/04/20 05:21:28;;;;;;;7.00;5.67;;;9.40;99.90;;;;;;5081739;28;20202;-70
2021/04/20 05:23:54;;;;;;;13.50;5.77;;;9.40;99.90;;;;;;5093032;28;20205;-77
2021/04/20 05:26:21;;;;;;;8.43;4.87;;;9.10;99.90;;;;;;5084621;28;20214;-75
2021/04/20 05:28:47;;;;;;;11.10;5.20;;;9.30;99.90;;;;;;5092038;28;20632;-74
2021/04/20 05:31:14;;;;;;;6.93;5.10;;;9.20;99.90;;;;;;5092400;28;20205;-74
2021/04/20 05:33:40;;;;;;;7.53;5.57;;;9.20;99.90;;;;;;5092424;28;20330;-76
2021/04/20 05:36:09;;;;;;;5.60;5.00;;;9.20;99.90;;;;;;5091896;28;20212;-77
2021/04/20 05:38:35;;;;;;;6.13;5.23;;;9.10;99.90;;;;;;5086048;28;20202;-79
2021/04/20 05:41:02;;;;;;;9.17;5.23;;;9.20;99.90;;;;;;5069320;28;20206;-74
2021/04/20 05:43:29;;;;;;;5.63;4.30;;;9.30;99.90;;;;;;5063933;28;20210;-76
2021/04/20 05:45:56;;;;;;;8.80;6.10;;;9.20;99.90;;;;;;5061276;28;20213;-75
2021/04/20 05:48:23;;;;;;;6.03;5.10;;;9.30;99.90;;;;;;5062326;28;20692;-75
2021/04/20 05:50:51;;;;;;;9.10;4.13;;;9.40;99.90;;;;;;5066320;28;20226;-75
2021/04/20 05:53:19;;;;;;;7.93;4.67;;;9.40;99.90;;;;;;5056059;28;20207;-74
2021/04/20 05:55:45;;;;;;;8.17;4.47;;;9.50;99.90;;;;;;5066878;28;20682;-71
2021/04/20 05:58:13;;;;;;;5.43;4.00;;;9.50;99.90;;;;;;5082200;28;20677;-73
2021/04/20 06:00:40;;;;;;;6.40;5.03;;;9.50;99.90;;;;;;5072742;28;20210;-75
2021/04/20 06:03:06;;;;;;;5.77;4.73;;;9.50;99.90;;;;;;5072522;28;20590;-73
2021/04/20 06:05:33;;;;;;;6.23;4.80;;;9.50;99.90;;;;;;5070754;28;20210;-77
2021/04/20 06:08:02;;;;;;;7.30;4.70;;;9.70;99.90;;;;;;5072549;28;20206;-75
2021/04/20 06:10:32;;;;;;;7.67;5.17;;;9.70;99.90;;;;;;5072608;28;20229;-77
2021/04/20 06:12:58;;;;;;;7.80;3.97;;;9.70;99.90;;;;;;5069325;28;20215;-70
2021/04/20 06:15:25;;;;;;;5.87;4.57;;;9.80;99.90;;;;;;5072236;28;20214;-75
2021/04/20 06:17:52;;;;;;;8.97;4.70;;;9.90;99.90;;;;;;5073107;28;20202;-77
2021/04/20 06:20:21;;;;;;;11.67;4.13;;;10.00;99.90;;;;;;5072350;28;20248;-73
2021/04/20 06:22:49;;;;;;;8.30;5.73;;;10.20;99.90;;;;;;5070702;28;20279;-75
2021/04/20 06:25:17;;;;;;;7.90;4.90;;;10.30;99.90;;;;;;5071450;28;20260;-74
2021/04/20 06:27:45;;;;;;;10.77;6.07;;;10.40;99.90;;;;;;5069324;28;20198;-71
2021/04/20 06:30:13;;;;;;;9.37;4.83;;;10.50;99.90;;;;;;5071060;28;20229;-74
2021/04/20 06:32:41;;;;;;;12.30;5.33;;;10.60;99.90;;;;;;5068122;28;20202;-74
2021/04/20 06:35:12;;;;;;;7.67;5.50;;;10.60;99.90;;;;;;5072745;28;20251;-72
2021/04/20 06:37:40;;;;;;;11.50;5.30;;;10.60;99.90;;;;;;5071805;28;20243;-72
2021/04/20 06:40:11;;;;;;;8.73;5.40;;;10.80;99.90;;;;;;5071983;28;20248;-70
2021/04/20 06:42:43;;;;;;;8.30;4.93;;;11.00;99.90;;;;;;5072279;28;21136;-71
2021/04/20 06:45:15;;;;;;;15.13;5.60;;;11.20;99.90;;;;;;5068550;28;20612;-69
2021/04/20 06:47:49;;;;;;;7.50;5.67;;;11.30;99.90;;;;;;5064778;28;20209;-72
2021/04/20 06:50:18;;;;;;;13.23;5.57;;;11.40;99.90;;;;;;5073446;28;20225;-70
2021/04/20 06:52:50;;;;;;;8.93;5.17;;;11.50;99.90;;;;;;5083280;28;20209;-72
2021/04/20 06:55:25;;;;;;;9.53;6.63;;;11.70;99.90;;;;;;5082796;28;20638;-71
2021/04/20 06:58:12;;;;;;;11.63;7.30;;;12.00;99.90;;;;;;5088263;28;20200;-70
2021/04/20 07:00:46;;;;;;;8.67;5.53;;;12.00;99.90;;;;;;5082460;28;20202;-69
2021/04/20 07:03:24;;;;;;;12.40;6.50;;;12.40;99.90;;;;;;5073235;28;20205;-70
2021/04/20 07:06:00;;;;;;;10.90;5.60;;;12.70;99.90;;;;;;5082933;28;20202;-72
2021/04/20 07:08:35;;;;;;;10.60;6.03;;;12.80;99.90;;;;;;5069636;28;20205;-70
2021/04/20 07:11:06;;;;;;;7.70;5.37;;;13.10;99.90;;;;;;5073964;28;20229;-75
2021/04/20 07:13:36;;;;;;;8.47;5.23;;;13.00;99.90;;;;;;5066921;28;20193;-74
2021/04/20 07:16:13;;;;;;;6.70;4.40;;;12.90;99.90;;;;;;5070795;28;20210;-75
2021/04/20 07:19:02;;;;;;;5.20;4.57;;;12.90;99.90;;;;;;5057616;28;20247;-72
2021/04/20 07:22:01;;;;;;;11.27;5.30;;;12.90;99.90;;;;;;5062980;28;20203;-72
2021/04/20 07:24:35;;;;;;;10.40;4.70;;;13.00;99.90;;;;;;5054060;28;20580;-73
2021/04/20 07:27:24;;;;;;;8.40;4.97;;;13.10;99.90;;;;;;5055925;28;20231;-74
2021/04/20 07:30:02;;;;;;;7.47;4.43;;;13.20;99.90;;;;;;5070241;28;20234;-72
2021/04/20 07:32:54;;;;;;;6.77;4.30;;;13.30;99.90;;;;;;5070298;28;20666;-71
2021/04/20 07:35:28;;;;;;;5.40;4.43;;;13.40;99.90;;;;;;5067665;28;20206;-73
2021/04/20 07:37:57;;;;;;;6.67;4.60;;;13.60;99.90;;;;;;5069213;28;20619;-73
2021/04/20 07:40:30;;;;;;;7.17;4.37;;;13.80;99.90;;;;;;5069450;28;20209;-72
2021/04/20 07:43:31;;;;;;;4.73;3.93;;;13.80;99.90;;;;;;5072407;28;20202;-72
2021/04/20 07:46:05;;;;;;;4.90;3.97;;;13.70;99.90;;;;;;5077575;28;20196;-73
2021/04/20 07:48:51;;;;;;;8.83;5.03;;;13.70;99.90;;;;;;5094314;28;20217;-73
2021/04/20 07:51:25;;;;;;;7.03;5.03;;;13.60;99.90;;;;;;5086258;28;20209;-73
2021/04/20 07:54:03;;;;;;;6.87;5.03;;;13.70;99.90;;;;;;5082112;28;20206;-73
2021/04/20 07:56:35;;;;;;;11.30;4.40;;;13.70;99.90;;;;;;5079656;28;20362;-72
2021/04/20 07:59:11;;;;;;;10.55;6.07;;;13.80;99.90;;;;;;5085973;28;20205;-74
2021/04/20 08:01:44;;;;;;;3.90;3.50;;;14.10;99.90;;;;;;5094295;28;20224;-74
2021/04/20 08:04:24;;;;;;;5.60;4.30;;;14.30;99.90;;;;;;5082740;28;20715;-74
2021/04/20 08:07:00;;;;;;;6.82;4.55;;;14.10;99.90;;;;;;5064514;28;20197;-73
2021/04/20 08:09:32;;;;;;;8.38;4.53;;;14.50;99.90;;;;;;5080676;28;20224;-71
2021/04/20 08:12:04;;;;;;;6.38;4.47;;;14.50;99.90;;;;;;5079420;28;20243;-72
2021/04/20 08:14:36;;;;;;;6.20;4.25;;;14.80;99.90;;;;;;5075365;28;20206;-72
2021/04/20 08:17:08;;;;;;;6.43;4.38;;;14.90;99.90;;;;;;5080866;28;20201;-77
2021/04/20 08:19:41;;;;;;;4.93;4.38;;;15.00;99.90;;;;;;5067075;28;20209;-70
2021/04/20 08:22:08;;;;;;;4.60;4.10;;;15.00;99.90;;;;;;5068318;28;20202;-71
2021/04/20 08:24:42;;;;;;;6.38;4.50;;;15.50;99.90;;;;;;5064326;28;20202;-72
2021/04/20 08:27:15;;;;;;;5.78;3.65;;;15.70;99.90;;;;;;5079062;28;20204;-73
2021/04/20 08:29:45;;;;;;;4.47;4.07;;;15.90;99.90;;;;;;5062792;28;20736;-74
2021/04/20 08:32:17;;;;;;;7.00;4.78;;;16.40;99.90;;;;;;5068669;28;20297;-73
2021/04/20 08:34:51;;;;;;;8.75;4.43;;;16.40;99.90;;;;;;5081644;28;20209;-73
2021/04/20 08:37:30;;;;;;;9.70;4.15;;;16.40;99.90;;;;;;5079225;28;20205;-72
2021/04/20 08:40:07;;;;;;;7.13;3.95;;;16.60;99.90;;;;;;5091172;28;20676;-74
2021/04/20 08:42:43;;;;;;;6.30;3.80;;;16.90;99.90;;;;;;5075638;28;20205;-74
2021/04/20 08:45:18;;;;;;;4.63;3.95;;;16.80;99.90;;;;;;5085476;28;20205;-71
2021/04/20 08:47:55;;;;;;;4.97;4.47;;;16.60;99.90;;;;;;5086619;28;20262;-72
2021/04/20 08:50:25;;;;;;;5.38;4.45;;;16.10;99.90;;;;;;5081595;28;20229;-70
2021/04/20 08:53:02;;;;;;;7.20;4.30;;;15.90;99.90;;;;;;5082612;28;20570;-72
2021/04/20 08:55:39;;;;;;;4.75;4.30;;;16.10;99.90;;;;;;5085393;28;20235;-72
2021/04/20 08:58:22;;;;;;;6.15;4.50;;;16.30;99.90;;;;;;5083017;28;20213;-72
2021/04/20 09:01:01;;;;;;;4.75;4.35;;;17.30;99.90;;;;;;5066969;28;20210;-74
2021/04/20 09:03:38;;;;;;;7.50;4.15;;;18.50;99.90;;;;;;5074512;28;20622;-74
2021/04/20 09:06:09;;;;;;;4.63;3.95;;;18.20;99.90;;;;;;5081620;28;20240;-72
2021/04/20 09:08:36;;;;;;;4.68;4.05;;;18.00;99.90;;;;;;5060521;28;20211;-81
2021/04/20 09:11:09;;;;;;;12.05;4.25;;;18.00;99.90;;;;;;5070513;28;20241;-79
2021/04/20 09:13:43;;;;;;;4.65;4.25;;;19.10;99.90;;;;;;5070622;28;20288;-78
2021/04/20 09:16:14;;;;;;;4.78;4.22;;;18.90;99.90;;;;;;5077862;28;20205;-81
2021/04/20 09:18:43;;;;;;;6.63;4.38;;;18.80;99.90;;;;;;5062954;28;20301;-82
2021/04/20 09:21:18;;;;;;;5.30;4.65;;;18.60;99.90;;;;;;5085334;28;20210;-79
2021/04/20 09:23:58;;;;;;;4.50;4.10;;;18.70;99.90;;;;;;5089563;28;20201;-85
2021/04/20 09:26:32;;;;;;;4.22;3.80;;;18.80;99.90;;;;;;5085333;28;20660;-69
2021/04/20 09:29:01;;;;;;;5.20;3.67;;;20.10;99.90;;;;;;5062176;28;20553;-71
2021/04/20 09:31:36;;;;;;;9.02;4.05;;;21.70;99.90;;;;;;5065897;28;20226;-74
2021/04/20 09:34:05;;;;;;;7.22;3.85;;;21.20;99.90;;;;;;5054942;28;20195;-78
2021/04/20 09:36:33;;;;;;;4.45;4.13;;;20.00;99.90;;;;;;5066870;28;20206;-74
2021/04/20 09:39:04;;;;;;;4.47;4.07;;;19.90;99.90;;;;;;5075909;28;20561;-77
2021/04/20 09:41:35;;;;;;;5.50;3.90;;;21.40;99.90;;;;;;5070639;28;20670;-78
2021/04/20 09:44:11;;;;;;;6.60;3.97;;;21.50;99.90;;;;;;5071995;28;20237;-73
2021/04/20 09:46:48;;;;;;;4.25;3.60;;;23.10;99.90;;;;;;5083068;28;20205;-76
2021/04/20 09:49:22;;;;;;;6.75;4.05;;;23.70;99.90;;;;;;5084079;28;20739;-71
2021/04/20 09:51:55;;;;;;;2.70;2.47;;;23.50;99.90;;;;;;5079102;28;20210;-70
2021/04/20 09:54:26;;;;;;;3.63;2.35;;;24.00;99.90;;;;;;5066480;28;20202;-71
2021/04/20 09:56:54;;;;;;;3.78;3.20;;;23.20;99.90;;;;;;5065683;28;20202;-69
2021/04/20 09:59:26;;;;;;;4.63;2.55;;;25.30;99.90;;;;;;5064125;28;20210;-73
2021/04/20 10:02:08;;;;;;;4.05;3.38;;;28.20;99.90;;;;;;5062116;28;20203;-70
2021/04/20 10:04:53;;;;;;;3.53;3.22;;;28.60;99.90;;;;;;5074875;28;20198;-69
2021/04/20 10:07:33;;;;;;;3.45;2.78;;;28.70;99.90;;;;;;5077894;28;20206;-71
2021/04/20 10:10:10;;;;;;;2.70;2.35;;;28.00;99.90;;;;;;5082813;28;20217;-69
2021/04/20 10:12:49;;;;;;;2.80;2.60;;;28.90;99.90;;;;;;5077884;28;20206;-71
2021/04/20 10:15:22;;;;;;;4.78;3.08;;;30.30;99.90;;;;;;5070174;28;20255;-71
2021/04/20 10:18:02;;;;;;;3.58;2.60;;;29.90;99.90;;;;;;5068010;28;20695;-72
2021/04/20 10:20:37;;;;;;;3.70;3.38;;;29.70;99.90;;;;;;5077033;28;20197;-70
2021/04/20 10:23:17;;;;;;;4.05;3.20;;;30.10;99.90;;;;;;5074856;28;20201;-68
2021/04/20 10:25:49;;;;;;;4.10;3.40;;;29.20;99.90;;;;;;5078891;28;20257;-71
2021/04/20 10:28:24;;;;;;;3.30;3.00;;;28.80;99.90;;;;;;5069597;28;20286;-67
2021/04/20 10:30:54;;;;;;;4.35;2.78;;;26.90;99.90;;;;;;5073330;28;20240;-68
2021/04/20 10:33:23;;;;;;;2.85;2.50;;;24.10;99.90;;;;;;5076780;28;20686;-68
2021/04/20 10:35:55;;;;;;;6.00;3.30;;;21.90;99.90;;;;;;5079664;28;20197;-68
2021/04/20 10:38:28;;;;;;;5.28;2.63;;;20.50;99.90;;;;;;5076074;28;20210;-67
2021/04/20 10:40:54;;;;;;;4.80;2.88;;;20.30;99.90;;;;;;5074723;28;20686;-67
2021/04/20 10:43:24;;;;;;;3.38;3.08;;;20.30;99.90;;;;;;5075382;28;20221;-68
2021/04/20 10:45:52;;;;;;;4.53;2.60;;;20.30;99.90;;;;;;5071493;28;20730;-69
2021/04/20 10:48:23;;;;;;;4.75;3.13;;;20.10;99.90;;;;;;5090484;28;20603;-68
2021/04/20 10:50:52;;;;;;;3.88;3.33;;;20.10;99.90;;;;;;5090922;28;20324;-68
2021/04/20 10:53:23;;;;;;;6.65;3.95;;;20.50;99.90;;;;;;5064003;28;20275;-68
2021/04/20 10:55:55;;;;;;;4.32;3.50;;;20.70;99.90;;;;;;5079063;28;20205;-68
2021/04/20 10:58:24;;;;;;;3.53;2.72;;;20.90;99.90;;;;;;5086346;28;20201;-66
2021/04/20 11:00:52;;;;;;;4.65;2.65;;;20.70;99.90;;;;;;5088968;28;20300;-67
2021/04/20 11:03:23;;;;;;;7.60;2.97;;;20.20;99.90;;;;;;5059326;28;20871;-70
2021/04/20 11:05:50;;;;;;;3.53;3.25;;;20.00;99.90;;;;;;5055488;28;20202;-68
2021/04/20 11:08:24;;;;;;;2.47;2.28;;;19.60;99.90;;;;;;5071292;28;20350;-68
2021/04/20 11:10:50;;;;;;;3.28;2.92;;;20.00;99.90;;;;;;5073997;28;20229;-68
2021/04/20 11:13:33;;;;;;;4.10;3.47;;;20.00;99.90;;;;;;5070250;28;20209;-68
2021/04/20 11:15:59;;;;;;;6.03;2.90;;;20.10;99.90;;;;;;5065526;28;20621;-69
2021/04/20 11:18:27;;;;;;;2.67;2.45;;;20.50;99.90;;;;;;5071713;28;20206;-71
2021/04/20 11:20:54;;;;;;;5.40;3.97;;;20.60;99.90;;;;;;5071137;28;20210;-68
2021/04/20 11:23:25;;;;;;;3.60;3.17;;;20.60;99.90;;;;;;5069520;28;20216;-74
2021/04/20 11:26:04;;;;;;;5.57;3.47;;;20.70;99.90;;;;;;5089482;28;20205;-76
2021/04/20 11:28:38;;;;;;;3.70;3.00;;;20.90;99.90;;;;;;5087982;28;20261;-70
2021/04/20 11:31:06;;;;;;;5.57;3.03;;;21.00;99.90;;;;;;5088742;28;20222;-68
2021/04/20 11:33:38;;;;;;;4.53;3.00;;;20.90;99.90;;;;;;5078004;28;20205;-66
2021/04/20 11:36:13;;;;;;;4.13;2.80;;;19.80;99.90;;;;;;5079530;28;20208;-67
2021/04/20 11:38:45;;;;;;;6.35;2.88;;;19.70;99.90;;;;;;5070906;28;20683;-70
2021/04/20 11:41:13;;;;;;;3.75;2.97;;;20.50;99.90;;;;;;5085155;28;20555;-68
2021/04/20 11:43:40;;;;;;;2.70;2.50;;;20.40;99.90;;;;;;5081193;28;20261;-68
2021/04/20 11:46:08;;;;;;;4.68;2.47;;;20.20;99.90;;;;;;5084377;28;20209;-67
2021/04/20 11:48:36;;;;;;;3.35;2.58;;;20.20;99.90;;;;;;5087842;28;20230;-69
2021/04/20 11:51:05;;;;;;;2.60;2.40;;;20.30;99.90;;;;;;5080275;28;20274;-69
2021/04/20 11:53:39;;;;;;;4.30;2.70;;;20.70;99.90;;;;;;5088467;28;20209;-67
2021/04/20 11:56:07;;;;;;;9.05;2.78;;;21.00;99.90;;;;;;5084433;28;20739;-70
2021/04/20 11:58:36;;;;;;;4.43;2.88;;;20.90;99.90;;;;;;5079178;28;20753;-69
2021/04/20 12:01:09;;;;;;;3.88;3.35;;;21.00;99.90;;;;;;5081614;28;20206;-70
2021/04/20 12:03:43;;;;;;;3.40;3.08;;;21.20;99.90;;;;;;5077201;28;20209;-69
2021/04/20 12:06:10;;;;;;;3.40;3.10;;;21.20;99.90;;;;;;5081471;28;20209;-72
2021/04/20 12:08:39;;;;;;;2.75;2.53;;;21.40;99.90;;;;;;5082500;28;20221;-72
2021/04/20 12:11:09;;;;;;;4.13;2.55;;;21.30;99.90;;;;;;5074294;28;20241;-69
2021/04/20 12:13:37;;;;;;;5.70;2.40;;;21.20;99.90;;;;;;5067941;28;20205;-70
2021/04/20 12:16:08;;;;;;;4.50;2.50;;;21.00;99.90;;;;;;5075967;28;20744;-68
2021/04/20 12:18:36;;;;;;;4.43;2.53;;;21.40;99.90;;;;;;5080261;28;20579;-69
2021/04/20 12:21:06;;;;;;;3.83;2.55;;;21.80;99.90;;;;;;5074446;28;20666;-71
2021/04/20 12:23:35;;;;;;;2.97;2.75;;;22.00;99.90;;;;;;5080924;28;20581;-73
2021/04/20 12:26:02;;;;;;;2.55;2.35;;;22.00;99.90;;;;;;5077542;28;20666;-72
2021/04/20 12:28:31;;;;;;;2.90;2.70;;;21.50;99.90;;;;;;5080069;28;20210;-67
2021/04/20 12:30:58;;;;;;;3.70;3.10;;;21.50;99.90;;;;;;5078016;28;20237;-70
2021/04/20 12:33:29;;;;;;;3.53;2.40;;;21.30;99.90;;;;;;5079841;28;20210;-69
2021/04/20 12:35:57;;;;;;;4.32;3.15;;;21.00;99.90;;;;;;5078823;28;20198;-69
2021/04/20 12:38:27;;;;;;;2.53;2.13;;;21.10;99.90;;;;;;5077287;28;20232;-72
2021/04/20 12:40:58;;;;;;;4.32;2.42;;;21.50;99.90;;;;;;5073580;28;20214;-68
2021/04/20 12:43:27;;;;;;;2.58;2.38;;;21.70;99.90;;;;;;5071118;28;20199;-68
2021/04/20 12:46:06;;;;;;;2.67;2.47;;;21.90;99.90;;;;;;5074867;28;20201;-67
2021/04/20 12:48:33;;;;;;;5.45;2.95;;;21.60;99.90;;;;;;5083329;28;20217;-68
2021/04/20 12:51:01;;;;;;;3.17;2.88;;;21.40;99.90;;;;;;5090235;28;20705;-68
2021/04/20 12:53:29;;;;;;;2.65;2.22;;;21.30;99.90;;;;;;5091441;28;20320;-72
2021/04/20 12:55:56;;;;;;;2.63;2.38;;;21.80;99.90;;;;;;5077712;28;20206;-71
2021/04/20 12:58:26;;;;;;;2.45;2.25;;;21.70;99.90;;;;;;5076480;28;20199;-72
2021/04/20 13:01:00;;;;;;;4.18;2.17;;;21.70;99.90;;;;;;5074543;28;20213;-72
2021/04/20 13:03:28;;;;;;;2.80;2.47;;;21.90;99.90;;;;;;5061491;28;20689;-70
2021/04/20 13:05:56;;;;;;;4.47;2.55;;;21.60;99.90;;;;;;5065208;28;20214;-69